Time;durP1;ratioP1;P1;durP2;ratioP2;P2;SDS_P1;SDS_P2;PMS_P1;PMS_P2;Temp;Humidity;BMP_temperature;BMP_pressure;BME280_temperature;BME280_humidity;BME280_pressure;Samples;Min_cycle;Max_cycle;Signal;HPM_P1;HPM_P2
2021/12/26 00:00:21;;;;;;;5.07;2.65;;;-0.60;99.90;;;;;;7241429;32;20093;-78
2021/12/26 00:04:23;;;;;;;4.30;2.70;;;-0.50;99.90;;;;;;7250492;32;20568;-77
2021/12/26 00:08:26;;;;;;;4.30;2.22;;;-0.60;99.90;;;;;;7262412;32;20097;-77
2021/12/26 00:12:28;;;;;;;4.70;2.80;;;-0.60;99.90;;;;;;7257077;32;20125;-77
2021/12/26 00:16:30;;;;;;;3.53;2.00;;;-0.50;99.90;;;;;;7242781;32;20112;-77
2021/12/26 00:20:32;;;;;;;6.05;2.50;;;-0.50;99.90;;;;;;7256025;32;20128;-77
2021/12/26 00:24:35;;;;;;;3.87;2.62;;;-0.40;99.90;;;;;;7253171;32;20093;-76
2021/12/26 00:28:39;;;;;;;5.00;2.50;;;-0.40;99.90;;;;;;7240823;32;20108;-76
2021/12/26 00:32:43;;;;;;;4.82;2.62;;;-0.40;99.90;;;;;;7260652;32;20132;-76
2021/12/26 00:36:46;;;;;;;4.15;2.30;;;-0.40;99.90;;;;;;7291233;32;20061;-76
2021/12/26 00:40:49;;;;;;;6.45;3.35;;;-0.30;99.90;;;;;;7280514;32;20061;-74
2021/12/26 00:44:51;;;;;;;5.05;2.65;;;-0.40;99.90;;;;;;7282035;32;20155;-76
2021/12/26 00:48:53;;;;;;;7.25;3.03;;;-0.50;99.90;;;;;;7295231;32;20125;-76
2021/12/26 00:52:56;;;;;;;5.78;2.80;;;-0.40;99.90;;;;;;7281891;32;20120;-75
2021/12/26 00:56:58;;;;;;;5.97;3.15;;;-0.40;99.90;;;;;;7268427;32;20350;-75
2021/12/26 01:01:01;;;;;;;7.15;2.90;;;-0.50;99.90;;;;;;7268011;32;20144;-75
2021/12/26 01:05:06;;;;;;;5.80;3.03;;;-0.40;99.90;;;;;;7281033;32;20164;-77
2021/12/26 01:09:12;;;;;;;4.65;2.95;;;-0.40;99.90;;;;;;7272572;32;20354;-75
2021/12/26 01:13:32;;;;;;;6.50;2.85;;;-0.40;99.90;;;;;;7304586;32;20153;-74
2021/12/26 01:17:35;;;;;;;5.85;2.35;;;-0.40;99.90;;;;;;7284034;32;20105;-75
2021/12/26 01:21:38;;;;;;;4.65;3.03;;;-0.50;99.90;;;;;;7282183;32;20069;-76
2021/12/26 01:25:40;;;;;;;4.43;2.83;;;-0.30;99.90;;;;;;7268976;32;20093;-75
2021/12/26 01:29:42;;;;;;;4.82;3.15;;;-0.50;99.90;;;;;;7281839;32;20073;-77
2021/12/26 01:33:46;;;;;;;5.80;2.97;;;-0.50;99.90;;;;;;7281232;32;20100;-75
2021/12/26 01:37:48;;;;;;;6.70;3.20;;;-0.60;99.90;;;;;;7279783;32;20112;-76
2021/12/26 01:41:51;;;;;;;5.53;3.35;;;-0.50;99.90;;;;;;7268091;32;20370;-76
2021/12/26 01:45:54;;;;;;;5.60;3.58;;;-0.60;99.90;;;;;;7292461;32;20117;-76
2021/12/26 01:49:56;;;;;;;6.05;3.17;;;-0.60;99.90;;;;;;7279101;32;20084;-75
2021/12/26 01:54:04;;;;;;;7.97;3.45;;;-0.60;99.90;;;;;;7254052;32;20178;-76
2021/12/26 01:58:20;;;;;;;5.12;2.70;;;-0.60;99.90;;;;;;7244674;32;20143;-77
2021/12/26 02:02:22;;;;;;;5.80;3.17;;;-0.60;99.90;;;;;;7251116;32;20146;-76
2021/12/26 02:06:24;;;;;;;4.95;3.15;;;-0.60;99.90;;;;;;7243414;32;20198;-76
2021/12/26 02:10:26;;;;;;;7.00;3.10;;;-0.70;99.90;;;;;;7254530;32;20121;-76
2021/12/26 02:14:28;;;;;;;6.07;3.42;;;-0.70;99.90;;;;;;7241543;32;20580;-76
2021/12/26 02:18:31;;;;;;;8.02;3.17;;;-0.80;99.90;;;;;;7255918;32;20217;-76
2021/12/26 02:22:37;;;;;;;5.93;2.67;;;-0.80;99.90;;;;;;7241213;32;20171;-76
2021/12/26 02:31:00;;;;;;;4.80;2.72;;;-0.80;99.90;;;;;;7253715;32;20166;-76
2021/12/26 02:35:03;;;;;;;4.57;2.78;;;-0.80;99.90;;;;;;7255299;32;20134;-75
2021/12/26 02:39:06;;;;;;;6.65;3.00;;;-0.70;99.90;;;;;;7240041;32;20263;-77
2021/12/26 02:43:08;;;;;;;4.87;3.05;;;-0.70;99.90;;;;;;7244694;32;20121;-77
2021/12/26 02:47:10;;;;;;;7.37;3.78;;;-0.70;99.90;;;;;;7243121;32;20143;-78
2021/12/26 02:51:12;;;;;;;6.78;3.53;;;-0.60;99.90;;;;;;7252835;32;20134;-76
2021/12/26 02:55:17;;;;;;;5.68;3.35;;;-0.60;99.90;;;;;;7241782;32;20113;-76
2021/12/26 02:59:19;;;;;;;5.43;2.92;;;-0.50;99.90;;;;;;7249357;32;20104;-76
2021/12/26 03:03:21;;;;;;;4.65;2.85;;;-0.40;99.90;;;;;;7268770;32;20186;-76
2021/12/26 03:07:23;;;;;;;4.82;2.97;;;-0.40;99.90;;;;;;7284556;32;20060;-74
2021/12/26 03:11:26;;;;;;;7.07;3.95;;;-0.30;99.90;;;;;;7285910;32;20120;-73
2021/12/26 03:15:30;;;;;;;10.23;6.12;;;-0.30;99.90;;;;;;7278333;32;20211;-73
2021/12/26 03:19:36;;;;;;;8.02;4.32;;;-0.30;99.90;;;;;;7291503;32;20069;-73
2021/12/26 03:23:38;;;;;;;6.07;3.87;;;-0.30;99.90;;;;;;7289127;32;20104;-73
2021/12/26 03:27:40;;;;;;;5.50;3.55;;;-0.20;99.90;;;;;;7277548;32;20088;-73
2021/12/26 03:31:43;;;;;;;5.55;3.20;;;-0.20;99.90;;;;;;7276399;32;20184;-75
2021/12/26 03:35:45;;;;;;;5.75;2.92;;;-0.20;99.90;;;;;;7265112;32;20109;-76
2021/12/26 03:39:47;;;;;;;5.70;3.22;;;-0.20;99.90;;;;;;7224364;32;20175;-76
2021/12/26 03:43:49;;;;;;;5.28;3.17;;;-0.30;99.90;;;;;;7235719;32;20150;-76
2021/12/26 03:47:51;;;;;;;7.40;3.55;;;-0.30;99.90;;;;;;7254962;32;20093;-77
2021/12/26 03:51:52;;;;;;;6.30;3.37;;;-0.30;99.90;;;;;;7241063;32;20116;-76
2021/12/26 03:55:54;;;;;;;6.70;3.17;;;-0.20;99.90;;;;;;7241323;32;20242;-77
2021/12/26 03:59:56;;;;;;;6.65;3.47;;;-0.20;99.90;;;;;;7254161;32;20529;-75
2021/12/26 04:03:58;;;;;;;6.50;3.55;;;-0.20;99.90;;;;;;7251081;32;20602;-75
2021/12/26 04:08:00;;;;;;;7.70;3.10;;;-0.30;99.90;;;;;;7240998;32;20734;-75
2021/12/26 04:12:16;;;;;;;5.70;3.17;;;-0.20;99.90;;;;;;7255751;32;20714;-76
2021/12/26 04:16:18;;;;;;;7.10;3.62;;;-0.20;99.90;;;;;;7258935;32;20124;-76
2021/12/26 04:20:22;;;;;;;5.78;3.40;;;-0.10;99.90;;;;;;7258707;32;20155;-76
2021/12/26 04:24:24;;;;;;;9.40;3.60;;;-0.10;99.90;;;;;;7244654;32;20582;-76
2021/12/26 04:28:26;;;;;;;4.93;3.22;;;-0.10;99.90;;;;;;7257208;32;20113;-76
2021/12/26 04:32:28;;;;;;;5.43;3.12;;;-0.10;99.90;;;;;;7225704;32;20769;-76
2021/12/26 04:36:30;;;;;;;6.25;3.15;;;-0.10;99.90;;;;;;7245032;32;20112;-75
2021/12/26 04:40:31;;;;;;;4.78;2.97;;;-0.20;99.90;;;;;;7238258;32;20203;-75
2021/12/26 04:44:33;;;;;;;5.22;3.70;;;-0.10;99.90;;;;;;7255791;32;20100;-76
2021/12/26 04:48:37;;;;;;;7.60;3.58;;;-0.10;99.90;;;;;;7258316;32;20230;-75
2021/12/26 04:52:41;;;;;;;3.92;2.80;;;0.00;99.90;;;;;;7257789;32;20230;-76
2021/12/26 04:56:43;;;;;;;5.95;3.53;;;-0.10;99.90;;;;;;7231501;32;20716;-75
2021/12/26 05:00:45;;;;;;;6.90;3.28;;;0.00;99.90;;;;;;7255610;32;20597;-75
2021/12/26 05:04:47;;;;;;;5.40;3.30;;;-0.10;99.90;;;;;;7258016;32;20170;-76
2021/12/26 05:08:50;;;;;;;6.18;3.08;;;0.00;99.90;;;;;;7257204;32;20198;-75
2021/12/26 05:13:00;;;;;;;4.78;2.83;;;0.00;99.90;;;;;;7232140;32;20150;-75
2021/12/26 05:17:01;;;;;;;6.35;3.17;;;0.00;99.90;;;;;;7244717;32;20633;-75
2021/12/26 05:21:03;;;;;;;7.18;3.58;;;0.00;99.90;;;;;;7242024;32;20120;-75
2021/12/26 05:25:09;;;;;;;6.15;3.10;;;-0.10;99.90;;;;;;7243186;32;20117;-75
2021/12/26 05:29:11;;;;;;;5.62;2.97;;;-0.10;99.90;;;;;;7253187;32;20116;-75
2021/12/26 05:33:13;;;;;;;6.70;3.58;;;-0.20;99.90;;;;;;7261583;32;20124;-75
2021/12/26 05:37:14;;;;;;;5.90;3.50;;;-0.20;99.90;;;;;;7255676;32;20133;-75
2021/12/26 05:41:16;;;;;;;6.45;3.45;;;-0.30;99.90;;;;;;7240145;32;20171;-75
2021/12/26 05:45:19;;;;;;;6.03;3.37;;;-0.20;99.90;;;;;;7235941;32;20528;-75
2021/12/26 05:49:21;;;;;;;7.45;3.50;;;-0.30;99.90;;;;;;7250988;32;20108;-76
2021/12/26 05:53:22;;;;;;;8.43;3.62;;;-0.40;99.90;;;;;;7255412;32;20764;-75
2021/12/26 05:57:24;;;;;;;5.82;3.35;;;-0.30;99.90;;;;;;7257564;32;20537;-75
2021/12/26 06:01:26;;;;;;;5.78;3.30;;;-0.20;99.90;;;;;;7255872;32;20139;-74
2021/12/26 06:05:28;;;;;;;6.53;3.25;;;-0.20;99.90;;;;;;7252221;32;20210;-75
2021/12/26 06:09:30;;;;;;;7.95;4.25;;;-0.20;99.90;;;;;;7257142;32;20134;-75
2021/12/26 06:13:33;;;;;;;5.25;3.45;;;-0.20;99.90;;;;;;7256581;32;20192;-75
2021/12/26 06:17:35;;;;;;;5.45;3.40;;;-0.20;99.90;;;;;;7255807;32;20135;-76
2021/12/26 06:21:37;;;;;;;5.35;3.35;;;-0.10;99.90;;;;;;7252415;32;20108;-75
2021/12/26 06:25:39;;;;;;;5.68;3.17;;;-0.10;99.90;;;;;;7255245;32;20113;-75
2021/12/26 06:29:41;;;;;;;7.20;3.62;;;0.00;99.90;;;;;;7247848;32;20194;-75
2021/12/26 06:33:43;;;;;;;6.35;3.65;;;-0.10;99.90;;;;;;7252104;32;20231;-75
2021/12/26 06:37:45;;;;;;;7.85;4.15;;;-0.10;99.90;;;;;;7249482;32;20187;-75
2021/12/26 06:41:47;;;;;;;5.85;3.90;;;-0.10;99.90;;;;;;7251025;32;20477;-75
2021/12/26 06:45:49;;;;;;;9.77;3.53;;;0.00;99.90;;;;;;7241707;32;20117;-75
2021/12/26 06:49:51;;;;;;;6.47;4.57;;;0.00;99.90;;;;;;7241433;32;20116;-75
2021/12/26 06:55:43;;;;;;;12.80;7.97;;;0.10;99.90;;;;;;7401661;31;20514;-64
2021/12/26 06:59:45;;;;;;;10.50;7.30;;;0.10;99.90;;;;;;7361493;32;20099;-65
2021/12/26 07:03:46;;;;;;;20.12;13.68;;;0.10;99.90;;;;;;7349224;32;20161;-65
2021/12/26 07:07:52;;;;;;;8.95;5.72;;;0.20;99.90;;;;;;7342972;32;20135;-63
2021/12/26 07:11:54;;;;;;;7.70;4.80;;;0.20;99.90;;;;;;7342929;32;20107;-64
2021/12/26 07:15:55;;;;;;;8.05;4.80;;;0.30;99.90;;;;;;7342236;32;20129;-65
2021/12/26 07:19:57;;;;;;;8.18;4.20;;;0.20;99.90;;;;;;7338513;32;20111;-65
2021/12/26 07:23:59;;;;;;;8.50;5.45;;;0.20;99.90;;;;;;7336053;32;20126;-64
2021/12/26 07:28:01;;;;;;;7.37;4.87;;;0.20;99.90;;;;;;7334526;32;20201;-65
2021/12/26 07:32:03;;;;;;;8.20;4.72;;;0.30;99.90;;;;;;7343116;32;20099;-65
2021/12/26 07:36:06;;;;;;;6.68;4.28;;;0.40;99.90;;;;;;7336259;32;20729;-65
2021/12/26 07:40:09;;;;;;;7.15;4.97;;;0.40;99.90;;;;;;7346905;32;20107;-63
2021/12/26 07:44:10;;;;;;;7.87;4.22;;;0.40;99.90;;;;;;7339464;32;20190;-63
2021/12/26 07:48:13;;;;;;;7.62;4.00;;;0.50;99.90;;;;;;7341324;32;20121;-63
2021/12/26 07:52:22;;;;;;;6.05;4.20;;;0.50;99.90;;;;;;7343749;32;20115;-63
2021/12/26 07:56:24;;;;;;;6.82;4.22;;;0.50;99.90;;;;;;7345320;32;20506;-63
2021/12/26 08:00:26;;;;;;;7.18;4.53;;;0.50;99.90;;;;;;7345870;32;20203;-63
2021/12/26 08:04:28;;;;;;;5.35;3.67;;;0.60;99.90;;;;;;7341436;32;20810;-65
2021/12/26 08:08:29;;;;;;;7.47;5.00;;;0.60;99.90;;;;;;7324507;32;20100;-66
2021/12/26 08:12:31;;;;;;;12.25;7.78;;;0.60;99.90;;;;;;7337450;32;20882;-63
2021/12/26 08:16:33;;;;;;;8.20;6.75;;;0.60;99.90;;;;;;7346673;32;20126;-63
2021/12/26 08:20:35;;;;;;;7.03;5.05;;;0.60;99.90;;;;;;7342849;32;20123;-63
2021/12/26 08:24:36;;;;;;;7.30;4.78;;;0.60;99.90;;;;;;7327971;32;20145;-63
2021/12/26 08:28:38;;;;;;;7.35;5.20;;;0.80;99.90;;;;;;7323365;32;20112;-63
2021/12/26 08:32:42;;;;;;;9.52;5.57;;;0.80;99.90;;;;;;7327462;32;20100;-63
2021/12/26 08:36:44;;;;;;;8.32;5.15;;;0.80;99.90;;;;;;7331705;32;20531;-63
2021/12/26 08:40:45;;;;;;;15.20;7.75;;;0.90;99.90;;;;;;7329439;32;20185;-63
2021/12/26 08:44:50;;;;;;;10.70;6.62;;;1.10;99.90;;;;;;7329477;32;20122;-63
2021/12/26 08:48:52;;;;;;;7.78;5.50;;;1.20;99.90;;;;;;7327712;32;20130;-63
2021/12/26 08:52:55;;;;;;;12.05;6.62;;;1.20;99.90;;;;;;7332067;32;20104;-64
2021/12/26 08:56:56;;;;;;;9.68;5.10;;;1.20;99.90;;;;;;7329153;32;20100;-64
2021/12/26 09:00:58;;;;;;;8.90;5.43;;;1.40;99.90;;;;;;7324617;32;20127;-63
2021/12/26 09:05:00;;;;;;;11.20;6.53;;;1.40;99.90;;;;;;7327018;32;20103;-64
2021/12/26 09:09:03;;;;;;;9.65;6.18;;;1.50;99.90;;;;;;7324210;32;20212;-65
2021/12/26 09:13:06;;;;;;;10.57;6.20;;;1.70;99.90;;;;;;7335492;32;20126;-65
2021/12/26 09:17:09;;;;;;;21.55;13.23;;;1.60;99.90;;;;;;7324852;32;20111;-64
2021/12/26 09:21:10;;;;;;;11.57;7.40;;;1.80;99.90;;;;;;7329360;32;20100;-64
2021/12/26 09:25:12;;;;;;;10.73;7.20;;;2.00;99.90;;;;;;7322326;32;20141;-64
2021/12/26 09:29:14;;;;;;;8.32;5.18;;;2.10;99.90;;;;;;7332944;32;20107;-64
2021/12/26 09:33:19;;;;;;;9.07;6.00;;;2.10;99.90;;;;;;7334217;32;20126;-65
2021/12/26 09:37:21;;;;;;;8.30;5.20;;;2.30;99.90;;;;;;7332035;32;20886;-64
2021/12/26 09:41:23;;;;;;;11.05;6.82;;;2.30;99.90;;;;;;7325426;32;20100;-63
2021/12/26 09:45:25;;;;;;;10.00;6.55;;;2.30;99.90;;;;;;7319585;32;20108;-65
2021/12/26 09:49:27;;;;;;;9.68;5.75;;;2.60;99.90;;;;;;7330003;32;20433;-64
2021/12/26 09:53:29;;;;;;;9.48;6.80;;;2.80;99.90;;;;;;7327406;32;20104;-64
2021/12/26 09:57:30;;;;;;;9.73;6.55;;;2.90;99.90;;;;;;7327871;32;20107;-64
2021/12/26 10:01:34;;;;;;;11.07;7.47;;;3.20;99.90;;;;;;7320973;32;20138;-64
2021/12/26 10:06:13;;;;;;;11.88;8.38;;;3.40;99.90;;;;;;7318565;32;20126;-65
2021/12/26 10:10:16;;;;;;;13.77;9.43;;;3.50;99.90;;;;;;7284751;32;20130;-64
2021/12/26 10:14:21;;;;;;;13.48;9.00;;;3.50;99.90;;;;;;7329635;32;21868;-64
2021/12/26 10:18:30;;;;;;;9.57;6.15;;;3.60;99.90;;;;;;7323356;32;20100;-64
2021/12/26 10:22:31;;;;;;;8.20;5.03;;;3.60;99.90;;;;;;7319313;32;20199;-63
2021/12/26 10:26:37;;;;;;;10.70;5.37;;;3.70;99.90;;;;;;7323858;32;20204;-62
2021/12/26 10:30:44;;;;;;;8.80;5.80;;;3.70;99.90;;;;;;7314516;32;20127;-63
2021/12/26 10:34:46;;;;;;;9.48;6.25;;;3.70;99.90;;;;;;7312717;32;20615;-64
2021/12/26 10:39:17;;;;;;;7.20;5.12;;;3.70;99.90;;;;;;7318323;32;20128;-63
2021/12/26 10:43:19;;;;;;;8.77;5.70;;;3.80;99.90;;;;;;7325145;32;20130;-64
2021/12/26 10:47:23;;;;;;;8.75;5.82;;;3.80;99.90;;;;;;7332862;32;20123;-64
2021/12/26 10:51:35;;;;;;;9.40;6.65;;;3.90;99.90;;;;;;7330434;32;20140;-63
2021/12/26 10:55:47;;;;;;;8.35;6.45;;;4.00;99.90;;;;;;7333719;32;20187;-64
2021/12/26 11:00:09;;;;;;;9.32;5.87;;;4.00;99.90;;;;;;7325381;32;20229;-63
2021/12/26 11:04:13;;;;;;;7.90;6.07;;;4.20;99.90;;;;;;7322599;32;20122;-65
2021/12/26 11:08:29;;;;;;;22.08;16.17;;;4.30;99.90;;;;;;7327163;32;20108;-64
2021/12/26 11:12:43;;;;;;;9.03;6.87;;;4.30;99.90;;;;;;7325513;32;20320;-63
2021/12/26 11:16:44;;;;;;;9.52;6.28;;;4.40;99.90;;;;;;7328210;32;20225;-64
2021/12/26 11:20:52;;;;;;;12.07;9.05;;;4.30;99.90;;;;;;7337226;32;20800;-64
2021/12/26 11:24:54;;;;;;;10.68;8.38;;;4.10;99.90;;;;;;7320448;32;20128;-64
2021/12/26 11:28:56;;;;;;;9.07;5.72;;;4.10;99.90;;;;;;7330933;32;20122;-63
2021/12/26 11:32:59;;;;;;;8.77;6.28;;;4.10;99.90;;;;;;7324721;32;20587;-63
2021/12/26 11:37:01;;;;;;;8.75;6.22;;;4.10;99.90;;;;;;7319916;32;20100;-64
2021/12/26 11:41:13;;;;;;;9.07;6.32;;;4.10;99.90;;;;;;7326690;32;20734;-63
2021/12/26 11:45:49;;;;;;;8.55;6.00;;;4.30;99.90;;;;;;7339097;32;20134;-63
2021/12/26 11:50:18;;;;;;;8.80;6.03;;;4.40;99.90;;;;;;7316049;32;20192;-65
2021/12/26 11:54:47;;;;;;;10.32;7.20;;;4.50;99.90;;;;;;7335331;32;20745;-65
2021/12/26 11:59:13;;;;;;;10.43;7.40;;;4.60;99.90;;;;;;7327102;32;20108;-64
2021/12/26 12:03:21;;;;;;;10.40;6.10;;;4.60;99.90;;;;;;7328105;32;20471;-64
2021/12/26 12:07:22;;;;;;;10.23;6.12;;;4.50;99.90;;;;;;7331260;32;20100;-63
2021/12/26 12:11:24;;;;;;;8.63;5.47;;;4.60;99.90;;;;;;7334593;32;20209;-65
2021/12/26 12:15:43;;;;;;;7.82;5.00;;;4.80;99.90;;;;;;7327075;32;20213;-63
2021/12/26 12:20:12;;;;;;;8.32;5.22;;;4.80;99.90;;;;;;7328969;32;20452;-65
2021/12/26 12:24:33;;;;;;;7.50;4.68;;;4.90;99.90;;;;;;7331405;32;20112;-65
2021/12/26 12:28:43;;;;;;;6.97;4.57;;;5.10;99.90;;;;;;7329393;32;20103;-64
2021/12/26 12:32:44;;;;;;;7.45;5.00;;;5.10;99.90;;;;;;7331680;32;20198;-65
2021/12/26 12:36:46;;;;;;;7.28;4.68;;;5.20;99.90;;;;;;7328476;32;20742;-64
2021/12/26 12:40:48;;;;;;;7.80;4.72;;;5.20;99.90;;;;;;7332835;32;20104;-64
2021/12/26 12:44:58;;;;;;;9.30;4.93;;;5.10;99.90;;;;;;7339465;32;20744;-64
2021/12/26 12:49:05;;;;;;;7.82;4.87;;;5.00;99.90;;;;;;7344034;32;20122;-62
2021/12/26 12:53:07;;;;;;;7.80;5.07;;;5.10;99.90;;;;;;7322179;32;20112;-64
2021/12/26 12:57:08;;;;;;;8.30;5.10;;;5.20;99.90;;;;;;7330768;32;20122;-63
2021/12/26 13:01:11;;;;;;;9.15;5.80;;;5.10;99.90;;;;;;7326577;32;20111;-65
2021/12/26 13:05:21;;;;;;;7.82;4.60;;;5.00;99.90;;;;;;7328442;32;20122;-65
2021/12/26 13:09:24;;;;;;;9.52;5.55;;;5.10;99.90;;;;;;7330504;32;20096;-64
2021/12/26 13:13:26;;;;;;;6.80;4.82;;;5.00;99.90;;;;;;7320085;32;20122;-63
2021/12/26 13:17:29;;;;;;;10.00;7.78;;;5.00;99.90;;;;;;7340071;32;20122;-64
2021/12/26 13:21:31;;;;;;;6.12;4.50;;;5.10;99.90;;;;;;7346266;32;20187;-65
2021/12/26 13:25:42;;;;;;;7.68;5.03;;;5.10;99.90;;;;;;7336368;32;20134;-64
2021/12/26 13:29:51;;;;;;;7.32;4.53;;;5.10;99.90;;;;;;7325826;32;20663;-63
2021/12/26 13:33:57;;;;;;;6.82;4.20;;;5.20;99.90;;;;;;7327340;32;20107;-64
2021/12/26 13:38:02;;;;;;;6.30;5.10;;;5.30;99.90;;;;;;7332054;32;20134;-64
2021/12/26 13:42:09;;;;;;;6.43;4.93;;;5.10;99.90;;;;;;7327842;32;20103;-65
2021/12/26 13:46:15;;;;;;;6.78;4.37;;;5.10;99.90;;;;;;7329813;32;21142;-64
2021/12/26 13:50:17;;;;;;;6.55;4.65;;;5.00;99.90;;;;;;7324465;32;20107;-64
2021/12/26 13:54:19;;;;;;;5.82;4.10;;;5.10;99.90;;;;;;7330038;32;20138;-64
2021/12/26 13:58:26;;;;;;;6.40;3.65;;;5.10;99.90;;;;;;7335589;32;20122;-63
2021/12/26 14:02:31;;;;;;;5.93;4.07;;;5.10;99.90;;;;;;7329035;32;20129;-63
2021/12/26 14:06:33;;;;;;;7.20;4.90;;;5.00;99.90;;;;;;7331599;32;20107;-69
2021/12/26 14:10:35;;;;;;;6.53;4.25;;;4.80;99.90;;;;;;7329931;32;20104;-62
2021/12/26 14:14:39;;;;;;;6.47;4.20;;;4.80;99.90;;;;;;7326941;32;20103;-63
2021/12/26 14:18:41;;;;;;;8.38;4.25;;;4.70;99.90;;;;;;7332769;32;20523;-64
2021/12/26 14:22:43;;;;;;;7.10;4.28;;;4.60;99.90;;;;;;7331718;32;20100;-65
2021/12/26 14:26:45;;;;;;;7.87;4.75;;;4.70;99.90;;;;;;7328709;32;20107;-64
2021/12/26 14:30:48;;;;;;;7.45;4.40;;;4.60;99.90;;;;;;7337649;32;20099;-63
2021/12/26 14:34:50;;;;;;;7.60;4.75;;;4.70;99.90;;;;;;7343129;32;20129;-64
2021/12/26 14:38:52;;;;;;;6.50;4.40;;;4.60;99.90;;;;;;7329173;32;20213;-64
2021/12/26 14:42:54;;;;;;;8.45;4.70;;;4.50;99.90;;;;;;7322265;32;20126;-62
2021/12/26 14:47:07;;;;;;;6.93;4.57;;;4.50;99.90;;;;;;7325683;32;20542;-63
2021/12/26 14:51:21;;;;;;;7.55;5.03;;;4.50;99.90;;;;;;7319750;32;20112;-60
2021/12/26 14:55:27;;;;;;;6.95;5.00;;;4.50;99.90;;;;;;7326800;32;20107;-63
2021/12/26 14:59:33;;;;;;;8.67;5.30;;;4.60;99.90;;;;;;7326578;32;20194;-63
2021/12/26 15:03:35;;;;;;;9.15;4.72;;;4.50;99.90;;;;;;7317074;32;20123;-63
2021/12/26 15:07:40;;;;;;;7.85;4.82;;;4.50;99.90;;;;;;7325916;32;20127;-64
2021/12/26 15:11:42;;;;;;;7.80;4.97;;;4.60;99.90;;;;;;7321065;32;20176;-65
2021/12/26 15:15:53;;;;;;;7.43;4.82;;;4.60;99.90;;;;;;7322094;32;20099;-64
2021/12/26 15:19:55;;;;;;;8.00;4.82;;;4.50;99.90;;;;;;7338475;32;20104;-64
2021/12/26 15:24:06;;;;;;;12.35;7.37;;;4.50;99.90;;;;;;7324889;32;20884;-64
2021/12/26 15:28:14;;;;;;;9.23;5.60;;;4.40;99.90;;;;;;7343922;32;20099;-65
2021/12/26 15:32:16;;;;;;;9.27;5.20;;;4.30;99.90;;;;;;7334800;32;20538;-65
2021/12/26 15:36:42;;;;;;;6.75;4.37;;;4.40;99.90;;;;;;7335103;32;20518;-64
2021/12/26 15:40:44;;;;;;;8.20;4.90;;;4.50;99.90;;;;;;7335759;32;20121;-63
2021/12/26 15:44:46;;;;;;;7.15;4.87;;;4.30;99.90;;;;;;7335641;32;20194;-64
2021/12/26 15:48:48;;;;;;;7.53;4.97;;;4.40;99.90;;;;;;7331670;32;20164;-65
2021/12/26 15:52:51;;;;;;;8.90;5.32;;;4.30;99.90;;;;;;7331728;32;20857;-65
2021/12/26 15:56:53;;;;;;;8.20;5.12;;;4.30;99.90;;;;;;7334134;32;20194;-64
2021/12/26 16:01:01;;;;;;;9.02;6.00;;;4.20;99.90;;;;;;7329555;32;20567;-64
2021/12/26 16:05:03;;;;;;;9.38;5.97;;;4.20;99.90;;;;;;7325496;32;20099;-64
2021/12/26 16:09:08;;;;;;;9.40;6.47;;;4.20;99.90;;;;;;7336706;32;20218;-64
2021/12/26 16:13:10;;;;;;;10.98;7.37;;;4.20;99.90;;;;;;7339017;32;20118;-63
2021/12/26 16:17:12;;;;;;;9.55;5.65;;;4.20;99.90;;;;;;7331814;32;20103;-64
2021/12/26 16:21:14;;;;;;;12.90;8.30;;;4.30;99.90;;;;;;7335106;32;20099;-65
2021/12/26 16:25:16;;;;;;;8.95;5.65;;;4.20;99.90;;;;;;7328161;32;20108;-64
2021/12/26 16:29:18;;;;;;;8.88;5.90;;;4.20;99.90;;;;;;7329486;32;20100;-63
2021/12/26 16:33:20;;;;;;;10.40;5.68;;;4.10;99.90;;;;;;7330708;32;20213;-63
2021/12/26 16:37:21;;;;;;;11.12;6.45;;;4.20;99.90;;;;;;7332031;32;20123;-63
2021/12/26 16:41:23;;;;;;;11.05;6.05;;;4.20;99.90;;;;;;7332643;32;20555;-64
2021/12/26 16:45:26;;;;;;;10.35;5.53;;;4.10;99.90;;;;;;7337578;32;20130;-64
2021/12/26 16:49:27;;;;;;;9.70;5.22;;;4.10;99.90;;;;;;7332762;32;20118;-63
2021/12/26 16:53:29;;;;;;;8.77;6.43;;;4.10;99.90;;;;;;7322234;32;20713;-63
2021/12/26 16:57:31;;;;;;;8.98;5.57;;;4.10;99.90;;;;;;7331105;32;20100;-63
2021/12/26 17:01:33;;;;;;;9.00;6.47;;;4.10;99.90;;;;;;7336650;32;20126;-63
2021/12/26 17:05:40;;;;;;;8.05;5.35;;;4.10;99.90;;;;;;7339357;32;20234;-63
2021/12/26 17:09:44;;;;;;;9.10;5.68;;;4.00;99.90;;;;;;7340647;32;20226;-63
2021/12/26 17:13:48;;;;;;;8.50;5.55;;;4.10;99.90;;;;;;7338303;32;20096;-62
2021/12/26 17:17:50;;;;;;;9.25;5.68;;;4.20;99.90;;;;;;7340804;32;20115;-63
2021/12/26 17:21:51;;;;;;;9.27;5.95;;;4.10;99.90;;;;;;7342275;32;20099;-64
2021/12/26 17:25:53;;;;;;;8.55;5.78;;;4.10;99.90;;;;;;7341109;32;20115;-63
2021/12/26 17:29:58;;;;;;;9.50;6.15;;;4.10;99.90;;;;;;7331405;32;20853;-64
2021/12/26 17:34:00;;;;;;;10.20;6.28;;;4.10;99.90;;;;;;7322705;32;20108;-63
2021/12/26 17:38:02;;;;;;;11.15;6.35;;;4.10;99.90;;;;;;7323892;32;20104;-64
2021/12/26 17:42:05;;;;;;;10.98;6.43;;;4.00;99.90;;;;;;7334535;32;20942;-64
2021/12/26 17:46:07;;;;;;;10.05;6.22;;;4.00;99.90;;;;;;7327598;32;20630;-64
2021/12/26 17:50:10;;;;;;;9.02;5.82;;;3.90;99.90;;;;;;7328784;32;20493;-65
2021/12/26 17:54:11;;;;;;;12.00;7.65;;;4.00;99.90;;;;;;7328772;32;20129;-64
2021/12/26 17:58:14;;;;;;;12.13;6.37;;;3.90;99.90;;;;;;7328435;32;20137;-65
2021/12/26 18:02:15;;;;;;;9.13;6.25;;;4.00;99.90;;;;;;7333330;32;20491;-63
2021/12/26 18:06:17;;;;;;;8.25;5.35;;;4.00;99.90;;;;;;7339041;32;20130;-62
2021/12/26 18:10:21;;;;;;;8.18;5.53;;;3.90;99.90;;;;;;7322055;32;20122;-62
2021/12/26 18:14:24;;;;;;;8.75;6.25;;;4.00;99.90;;;;;;7334452;32;20195;-62
2021/12/26 18:18:25;;;;;;;9.10;5.65;;;4.00;99.90;;;;;;7334172;32;20472;-63
2021/12/26 18:22:27;;;;;;;10.05;6.20;;;4.00;99.90;;;;;;7324546;32;20190;-63
2021/12/26 18:26:29;;;;;;;8.95;6.10;;;3.90;99.90;;;;;;7325501;32;20143;-61
2021/12/26 18:30:31;;;;;;;13.93;8.45;;;4.10;99.90;;;;;;7327256;32;20131;-63
2021/12/26 18:34:33;;;;;;;9.32;6.57;;;4.00;99.90;;;;;;7338342;32;20126;-63
2021/12/26 18:38:35;;;;;;;8.52;6.03;;;4.00;99.90;;;;;;7324340;32;20585;-63
2021/12/26 18:42:39;;;;;;;8.85;5.97;;;4.10;99.90;;;;;;7322606;32;20850;-63
2021/12/26 18:46:40;;;;;;;9.07;6.18;;;4.10;99.90;;;;;;7329785;32;20133;-62
2021/12/26 18:50:44;;;;;;;8.95;5.93;;;4.00;99.90;;;;;;7325358;32;20151;-64
2021/12/26 18:54:46;;;;;;;9.55;6.62;;;3.90;99.90;;;;;;7317258;32;20483;-63
2021/12/26 18:58:47;;;;;;;9.48;6.07;;;4.00;99.90;;;;;;7334541;32;20446;-62
2021/12/26 19:02:50;;;;;;;9.98;6.55;;;4.00;99.90;;;;;;7327393;32;20613;-64
2021/12/26 19:06:52;;;;;;;9.43;6.15;;;4.00;99.90;;;;;;7329174;32;20199;-64
2021/12/26 19:10:55;;;;;;;7.70;5.05;;;4.00;99.90;;;;;;7330862;32;20536;-63
2021/12/26 19:14:57;;;;;;;10.82;7.15;;;4.00;99.90;;;;;;7321332;32;20100;-63
2021/12/26 19:18:59;;;;;;;10.65;6.82;;;4.10;99.90;;;;;;7315863;32;20103;-62
2021/12/26 19:23:02;;;;;;;10.13;6.30;;;4.30;99.90;;;;;;7328730;32;20122;-62
2021/12/26 19:27:04;;;;;;;10.35;5.87;;;4.50;99.90;;;;;;7326556;32;20103;-62
2021/12/26 19:31:06;;;;;;;9.68;6.22;;;4.50;99.90;;;;;;7319311;32;20096;-61
2021/12/26 19:35:08;;;;;;;9.02;5.87;;;4.50;99.90;;;;;;7309145;32;20291;-62
2021/12/26 19:39:11;;;;;;;9.32;5.82;;;4.40;99.90;;;;;;7312539;32;20175;-61
2021/12/26 19:43:16;;;;;;;9.85;5.95;;;4.30;99.90;;;;;;7312757;32;21144;-64
2021/12/26 19:47:18;;;;;;;10.20;6.12;;;4.20;99.90;;;;;;7325281;32;20126;-64
2021/12/26 19:51:22;;;;;;;10.05;6.37;;;4.30;99.90;;;;;;7313389;32;20138;-65
2021/12/26 19:55:23;;;;;;;8.82;5.70;;;4.30;99.90;;;;;;7313343;32;20246;-65
2021/12/26 19:59:26;;;;;;;9.45;5.50;;;4.20;99.90;;;;;;7310924;32;20099;-66
2021/12/26 20:03:30;;;;;;;8.95;5.65;;;4.30;99.90;;;;;;7320157;32;20126;-66
2021/12/26 20:07:31;;;;;;;11.05;6.05;;;4.20;99.90;;;;;;7317949;32;20219;-66
2021/12/26 20:11:33;;;;;;;9.23;5.90;;;4.20;99.90;;;;;;7319510;32;20301;-65
2021/12/26 20:15:35;;;;;;;8.00;5.57;;;4.30;99.90;;;;;;7313666;32;20524;-66
2021/12/26 20:19:37;;;;;;;9.20;6.12;;;4.20;99.90;;;;;;7316615;32;20709;-65
2021/12/26 20:23:39;;;;;;;8.88;6.03;;;4.20;99.90;;;;;;7314089;32;20096;-65
2021/12/26 20:27:43;;;;;;;8.38;5.60;;;4.10;99.90;;;;;;7317602;32;20552;-63
2021/12/26 20:31:45;;;;;;;8.15;5.45;;;4.10;99.90;;;;;;7317628;32;20586;-65
2021/12/26 20:35:51;;;;;;;8.63;5.90;;;4.10;99.90;;;;;;7315056;32;21310;-66
2021/12/26 20:39:53;;;;;;;8.73;5.47;;;4.10;99.90;;;;;;7317733;32;20103;-66
2021/12/26 20:43:54;;;;;;;8.45;5.47;;;4.10;99.90;;;;;;7315690;32;20241;-66
2021/12/26 20:47:56;;;;;;;8.57;5.68;;;4.10;99.90;;;;;;7316004;32;20202;-66
2021/12/26 20:52:00;;;;;;;7.93;5.40;;;4.20;99.90;;;;;;7314631;32;20124;-66
2021/12/26 20:56:03;;;;;;;8.30;5.47;;;4.20;99.90;;;;;;7318370;32;20218;-66
2021/12/26 21:00:08;;;;;;;6.40;4.50;;;4.20;99.90;;;;;;7314318;32;20539;-67
2021/12/26 21:04:09;;;;;;;8.10;5.00;;;4.30;99.90;;;;;;7306965;32;20265;-67
2021/12/26 21:08:12;;;;;;;8.55;5.40;;;4.20;99.90;;;;;;7316894;32;21947;-64
2021/12/26 21:12:14;;;;;;;7.90;5.22;;;4.30;99.90;;;;;;7318230;32;20197;-66
2021/12/26 21:16:15;;;;;;;7.82;5.20;;;4.20;99.90;;;;;;7316762;32;20179;-66
2021/12/26 21:20:18;;;;;;;8.65;5.32;;;4.20;99.90;;;;;;7315010;32;20112;-65
2021/12/26 21:24:20;;;;;;;7.55;4.85;;;4.10;99.90;;;;;;7324281;32;20100;-67